CYGX

Gillam Airport

Airport
ICAO code
CYGX
IATA Code
YGX
Summary
ICAO Region
NAM
ICAO Territory
Location

Gillam, Manitoba

Serving
Gillam
Elevation
476 ft
Coordinates
56° 21' 28" N , 94° 42' 39" W
KCC
Metar
Observation
CYGX 010800Z 30009KT 15SM FEW011 M29/M33 A3018 RMK SC1 SLP243
Station
Gillam, Man.
Date/Time
2022-12-01 08:00:00
Wind direction
300°
Wind speed
09 kts
Lowest cloud amount
few clouds
Temperature
-29°C
Dew point
-33°C
Humidity
68%
Weather condition
n/a

Gillam Airport, is located adjacent to Gillam, Manitoba, Canada.

Climatology

Subarctic climate (Köppen climate classification Dfc)

Runways

Designator Length Width Surface Rops
5/23 1524 46 GRAVEL No/No

Airport map

Aerial View

SKYbrary Partners:

Safety knowledge contributed by: